Terminal Aerodrome Forecast
Issued by NWS Sterling, VA

Current Version | Previous Version | Text Only | Print | Product List | Glossary Off
Versions: 1 2 3 4 5 6 7 8 9 10 11 12 13 14 15 16 17 18 19 20 21 22 23 24

000
FTUS41 KLWX 301100
TAFDCA
TAF
KDCA 301127Z 3012/3112 31010G17KT P6SM SCT050 BKN100
     FM301400 31015G26KT P6SM BKN040
     FM302000 32023G35KT P6SM SCT040
     FM310400 31016G27KT P6SM FEW250=

USA.gov is the U.S. government's official web portal to all federal, state and local government web resources and services.